createdAt,value
2022-10-29T00:00:05.327Z,72.88
2022-10-29T00:01:05.317Z,73.11
2022-10-29T00:02:05.428Z,72.91
2022-10-29T00:03:05.431Z,73.52
2022-10-29T00:04:05.281Z,73.62
2022-10-29T00:05:05.255Z,73.72
2022-10-29T00:06:05.268Z,73.38
2022-10-29T00:07:05.281Z,73.62
2022-10-29T00:08:05.307Z,73.28
2022-10-29T00:09:05.214Z,73.58
2022-10-29T00:10:05.248Z,73.28
2022-10-29T00:11:05.202Z,73.28
2022-10-29T00:12:05.194Z,72.98
2022-10-29T00:13:05.203Z,72.88
2022-10-29T00:14:05.179Z,72.91
2022-10-29T00:15:05.533Z,72.91
2022-10-29T00:16:05.178Z,73.28
2022-10-29T00:17:05.166Z,73.28
2022-10-29T00:18:05.131Z,73.18
2022-10-29T00:19:05.101Z,73.28
2022-10-29T00:20:05.235Z,72.98
2022-10-29T00:21:05.100Z,73.08
2022-10-29T00:22:05.106Z,73.08
2022-10-29T00:23:05.082Z,72.98
2022-10-29T00:24:05.092Z,72.88
2022-10-29T00:25:05.085Z,72.78
2022-10-29T00:26:05.027Z,72.74
2022-10-29T00:27:05.031Z,72.67
2022-10-29T00:28:05.011Z,72.54
2022-10-29T00:29:05.050Z,73.14
2022-10-29T00:30:05.068Z,72.85
2022-10-29T00:31:05.026Z,72.98
2022-10-29T00:32:05.020Z,72.78
2022-10-29T00:33:04.981Z,73.58
2022-10-29T00:34:04.946Z,73.28
2022-10-29T00:35:04.966Z,73.28
2022-10-29T00:36:04.956Z,73.18
2022-10-29T00:37:04.921Z,73.18
2022-10-29T00:38:04.899Z,73.38
2022-10-29T00:39:04.879Z,73.58
2022-10-29T00:40:04.875Z,73.58
2022-10-29T00:41:04.903Z,73.68
2022-10-29T00:42:04.887Z,73.35
2022-10-29T00:43:04.836Z,73.25
2022-10-29T00:44:04.874Z,73.45
2022-10-29T00:45:04.816Z,73.55
2022-10-29T00:46:04.837Z,73.55
2022-10-29T00:47:04.851Z,73.25
2022-10-29T00:48:04.841Z,73.35
2022-10-29T00:49:04.780Z,73.25
2022-10-29T00:50:04.777Z,73.55
2022-10-29T00:51:04.831Z,73.14
2022-10-29T00:52:04.758Z,73.45
2022-10-29T00:53:04.725Z,73.25
2022-10-29T00:54:04.768Z,73.45
2022-10-29T00:55:04.740Z,73.35
2022-10-29T00:56:04.713Z,73.35
2022-10-29T00:57:04.683Z,73.25
2022-10-29T00:58:04.691Z,73.28
2022-10-29T00:59:04.668Z,73.18
2022-10-29T01:00:04.707Z,73.28
2022-10-29T01:01:04.643Z,73.18
2022-10-29T01:02:04.741Z,73.88
2022-10-29T01:03:04.703Z,74.39
2022-10-29T01:04:04.652Z,74.29
2022-10-29T01:05:04.593Z,74.19
2022-10-29T01:06:04.632Z,74.19
2022-10-29T01:07:04.570Z,74.29
2022-10-29T01:08:04.601Z,74.46
2022-10-29T01:09:04.568Z,74.05
2022-10-29T01:10:04.550Z,74.26
2022-10-29T01:11:04.523Z,74.35
2022-10-29T01:12:04.589Z,74.26
2022-10-29T01:13:04.551Z,74.35
2022-10-29T01:14:04.505Z,73.55
2022-10-29T01:15:04.532Z,73.65
2022-10-29T01:16:04.470Z,73.25
2022-10-29T01:17:04.471Z,73.25
2022-10-29T01:18:04.515Z,73.25
2022-10-29T01:19:04.534Z,72.74
2022-10-29T01:20:04.450Z,72.74
2022-10-29T01:21:04.425Z,73.11
2022-10-29T01:22:04.424Z,72.85
2022-10-29T01:23:04.398Z,72.74
2022-10-29T01:24:04.421Z,72.91
2022-10-29T01:25:04.471Z,73.55
2022-10-29T01:26:04.364Z,73.14
2022-10-29T01:27:04.402Z,73.32
2022-10-29T01:28:04.336Z,73.61
2022-10-29T01:29:04.340Z,73.35
2022-10-29T01:30:04.321Z,73.25
2022-10-29T01:31:04.312Z,73.65
2022-10-29T01:32:04.336Z,73.45
2022-10-29T01:33:04.292Z,73.55
2022-10-29T01:34:04.305Z,73.75
2022-10-29T01:35:04.262Z,73.45
2022-10-29T01:36:04.264Z,73.65
2022-10-29T01:37:04.237Z,73.65
2022-10-29T01:38:04.292Z,73.14
2022-10-29T01:39:04.233Z,73.14
2022-10-29T01:40:04.288Z,73.14
2022-10-29T01:41:04.219Z,73.25
2022-10-29T01:42:04.198Z,73.45
2022-10-29T01:43:04.181Z,73.35
2022-10-29T01:44:04.211Z,73.25
2022-10-29T01:45:04.217Z,73.25
2022-10-29T01:46:04.157Z,73.14
2022-10-29T01:47:04.132Z,73.58
2022-10-29T01:48:04.130Z,73.48
2022-10-29T01:49:04.107Z,73.48
2022-10-29T01:50:04.162Z,73.28
2022-10-29T01:51:04.089Z,73.68
2022-10-29T01:52:04.120Z,74.29
2022-10-29T01:53:04.072Z,73.68
2022-10-29T01:54:04.086Z,73.79
2022-10-29T01:55:04.047Z,73.58
2022-10-29T01:56:04.061Z,73.68
2022-10-29T01:57:04.027Z,73.28
2022-10-29T01:58:04.136Z,73.48
2022-10-29T01:59:04.061Z,73.28
2022-10-29T02:00:03.985Z,73.38
2022-10-29T02:01:04.134Z,73.28
2022-10-29T02:02:04.079Z,73.28
2022-10-29T02:03:03.964Z,73.08
2022-10-29T02:04:03.946Z,73.68
2022-10-29T02:05:04.021Z,73.38
2022-10-29T02:06:03.934Z,73.48
2022-10-29T02:07:03.921Z,73.68
2022-10-29T02:08:03.895Z,73.82
2022-10-29T02:09:03.902Z,74.39
2022-10-29T02:10:03.924Z,74.29
2022-10-29T02:11:03.902Z,74.59
2022-10-29T02:12:03.864Z,73.68
2022-10-29T02:13:03.849Z,74.39
2022-10-29T02:14:03.834Z,74.52
2022-10-29T02:15:03.834Z,74.32
2022-10-29T02:16:03.860Z,74.29
2022-10-29T02:17:03.829Z,73.52
2022-10-29T02:18:03.803Z,73.52
2022-10-29T02:19:03.832Z,74.52
2022-10-29T02:20:03.847Z,74.32
2022-10-29T02:21:03.768Z,74.32
2022-10-29T02:22:03.814Z,74.32
2022-10-29T02:23:03.779Z,74.12
2022-10-29T02:24:03.799Z,74.12
2022-10-29T02:25:03.786Z,74.32
2022-10-29T02:26:03.849Z,74.52
2022-10-29T02:27:03.693Z,74.52
2022-10-29T02:28:03.695Z,74.56
2022-10-29T02:29:03.676Z,74.36
2022-10-29T02:30:03.661Z,74.26
2022-10-29T02:31:03.685Z,74.16
2022-10-29T02:32:03.636Z,74.26
2022-10-29T02:33:03.633Z,74.26
2022-10-29T02:34:03.612Z,74.69
2022-10-29T02:35:03.657Z,74.76
2022-10-29T02:36:03.599Z,74.96
2022-10-29T02:37:03.632Z,74.66
2022-10-29T02:38:03.591Z,74.76
2022-10-29T02:39:03.571Z,74.36
2022-10-29T02:40:03.547Z,74.46
2022-10-29T02:41:03.579Z,74.36
2022-10-29T02:42:03.532Z,74.87
2022-10-29T02:43:03.518Z,74.46
2022-10-29T02:44:03.517Z,74.66
2022-10-29T02:45:03.551Z,74.56
2022-10-29T02:46:03.517Z,74.26
2022-10-29T02:47:03.521Z,74.26
2022-10-29T02:48:03.485Z,74.05
2022-10-29T02:49:03.448Z,74.26
2022-10-29T02:50:03.439Z,74.36
2022-10-29T02:51:03.430Z,74.49
2022-10-29T02:52:03.460Z,74.56
2022-10-29T02:53:03.479Z,74.46
2022-10-29T02:54:03.429Z,74.49
2022-10-29T02:55:03.429Z,74.69
2022-10-29T02:56:03.398Z,74.49
2022-10-29T02:57:03.426Z,74.80
2022-10-29T02:58:03.352Z,74.76
2022-10-29T02:59:05.301Z,74.96
2022-10-29T03:00:03.342Z,74.96
2022-10-29T03:01:03.322Z,74.60
2022-10-29T03:02:03.500Z,74.60
2022-10-29T03:03:03.431Z,74.49
2022-10-29T03:04:03.333Z,75.10
2022-10-29T03:05:03.281Z,74.90
2022-10-29T03:06:03.285Z,74.40
2022-10-29T03:07:03.259Z,74.36
2022-10-29T03:08:03.309Z,74.40
2022-10-29T03:09:03.248Z,74.49
2022-10-29T03:10:03.252Z,75.10
2022-10-29T03:11:03.227Z,74.76
2022-10-29T03:12:03.200Z,74.96
2022-10-29T03:13:03.267Z,74.56
2022-10-29T03:14:03.212Z,74.40
2022-10-29T03:15:03.176Z,74.09
2022-10-29T03:16:03.168Z,74.19
2022-10-29T03:17:03.166Z,74.63
2022-10-29T03:18:03.171Z,74.73
2022-10-29T03:19:03.128Z,75.04
2022-10-29T03:20:03.142Z,75.04
2022-10-29T03:21:03.108Z,75.44
2022-10-29T03:22:03.103Z,75.34
2022-10-29T03:23:03.126Z,75.34
2022-10-29T03:24:03.071Z,74.93
2022-10-29T03:25:03.074Z,75.04
2022-10-29T03:26:03.061Z,75.24
2022-10-29T03:27:03.045Z,74.84
2022-10-29T03:28:03.071Z,75.48
2022-10-29T03:29:03.059Z,75.48
2022-10-29T03:30:03.002Z,75.48
2022-10-29T03:31:02.993Z,75.37
2022-10-29T03:32:02.979Z,75.78
2022-10-29T03:33:03.007Z,75.57
2022-10-29T03:34:03.011Z,75.98
2022-10-29T03:35:02.962Z,75.68
2022-10-29T03:36:03.220Z,75.68
2022-10-29T03:37:02.934Z,75.78
2022-10-29T03:38:02.915Z,75.48
2022-10-29T03:39:02.899Z,75.44
2022-10-29T03:40:02.944Z,74.97
2022-10-29T03:41:02.879Z,75.04
2022-10-29T03:42:02.886Z,75.13
2022-10-29T03:43:02.920Z,74.97
2022-10-29T03:44:02.869Z,75.04
2022-10-29T03:45:02.877Z,74.93
2022-10-29T03:46:02.833Z,75.04
2022-10-29T03:47:02.833Z,75.24
2022-10-29T03:48:02.859Z,75.04
2022-10-29T03:49:02.828Z,75.34
2022-10-29T03:50:02.815Z,75.44
2022-10-29T03:51:02.782Z,75.34
2022-10-29T03:52:02.772Z,75.64
2022-10-29T03:53:02.776Z,75.24
2022-10-29T03:54:02.785Z,75.34
2022-10-29T03:55:02.736Z,74.73
2022-10-29T03:56:02.728Z,74.22
2022-10-29T03:57:02.734Z,74.66
2022-10-29T03:58:02.724Z,74.66
2022-10-29T03:59:02.774Z,74.63
2022-10-29T04:00:02.717Z,75.17
2022-10-29T04:01:02.661Z,74.97
2022-10-29T04:02:03.018Z,75.27
2022-10-29T04:03:02.718Z,75.07
2022-10-29T04:04:02.647Z,75.07
2022-10-29T04:05:02.709Z,75.17
2022-10-29T04:06:02.617Z,75.07
2022-10-29T04:07:02.594Z,75.48
2022-10-29T04:08:02.632Z,75.48
2022-10-29T04:09:02.580Z,75.57
2022-10-29T04:10:02.657Z,75.98
2022-10-29T04:11:02.552Z,75.68
2022-10-29T04:12:02.543Z,75.88
2022-10-29T04:13:02.532Z,75.37
2022-10-29T04:14:03.099Z,75.88
2022-10-29T04:15:02.560Z,75.48
2022-10-29T04:16:02.516Z,75.78
2022-10-29T04:17:02.492Z,75.98
2022-10-29T04:18:02.491Z,75.78
2022-10-29T04:19:02.501Z,75.78
2022-10-29T04:20:02.468Z,75.68
2022-10-29T04:29:02.425Z,75.24
2022-10-29T04:30:02.517Z,74.66
2022-10-29T04:31:02.360Z,74.60
2022-10-29T04:32:02.375Z,74.26
2022-10-29T04:33:02.330Z,74.50
2022-10-29T04:34:02.306Z,75.10
2022-10-29T04:35:02.298Z,75.41
2022-10-29T04:36:02.359Z,75.71
2022-10-29T04:37:02.312Z,76.26
2022-10-29T04:38:02.263Z,76.26
2022-10-29T04:39:02.271Z,76.05
2022-10-29T04:40:02.250Z,76.35
2022-10-29T04:41:02.231Z,75.85
2022-10-29T04:42:02.300Z,76.26
2022-10-29T04:43:02.208Z,76.26
2022-10-29T04:44:02.265Z,76.56
2022-10-29T04:45:02.203Z,76.76
2022-10-29T04:46:02.202Z,76.46
2022-10-29T04:47:02.221Z,77.06
2022-10-29T04:48:02.166Z,76.46
2022-10-29T04:49:02.279Z,76.56
2022-10-29T04:50:02.143Z,76.26
2022-10-29T04:51:02.145Z,76.46
2022-10-29T04:52:02.161Z,76.15
2022-10-29T04:53:02.101Z,76.26
2022-10-29T04:54:02.093Z,76.26
2022-10-29T04:55:02.073Z,75.85
2022-10-29T04:56:02.081Z,75.85
2022-10-29T04:57:02.088Z,76.05
2022-10-29T04:58:02.411Z,76.02
2022-10-29T04:59:02.039Z,76.02
2022-10-29T05:00:02.082Z,76.05
2022-10-29T05:01:02.207Z,76.35
2022-10-29T05:02:02.023Z,76.15
2022-10-29T05:03:02.045Z,76.26
2022-10-29T05:04:01.976Z,76.26
2022-10-29T05:05:02.051Z,76.35
2022-10-29T05:06:01.964Z,76.46
2022-10-29T05:07:01.947Z,76.22
2022-10-29T05:08:01.956Z,76.22
2022-10-29T05:09:01.969Z,75.61
2022-10-29T05:10:01.910Z,76.02
2022-10-29T05:11:01.942Z,76.52
2022-10-29T05:12:01.904Z,76.52
2022-10-29T05:13:01.893Z,76.32
2022-10-29T05:14:01.880Z,76.26
2022-10-29T05:15:01.907Z,76.26
2022-10-29T05:16:01.863Z,75.95
2022-10-29T05:17:01.959Z,75.95
2022-10-29T05:18:01.880Z,76.26
2022-10-29T05:19:01.832Z,76.46
2022-10-29T05:20:01.830Z,76.35
2022-10-29T05:21:01.844Z,76.56
2022-10-29T05:22:01.826Z,76.56
2022-10-29T05:23:01.836Z,75.85
2022-10-29T05:24:01.776Z,75.65
2022-10-29T05:25:01.754Z,76.26
2022-10-29T05:26:01.754Z,76.15
2022-10-29T05:27:01.742Z,75.92
2022-10-29T05:28:01.774Z,76.52
2022-10-29T05:29:01.711Z,76.42
2022-10-29T05:30:01.696Z,76.12
2022-10-29T05:31:01.693Z,76.12
2022-10-29T05:32:01.712Z,76.12
2022-10-29T05:33:01.711Z,76.26
2022-10-29T05:34:01.718Z,76.12
2022-10-29T05:35:01.651Z,76.12
2022-10-29T05:36:01.646Z,76.22
2022-10-29T05:37:01.662Z,76.42
2022-10-29T05:38:01.632Z,76.32
2022-10-29T05:39:01.645Z,76.12
2022-10-29T05:40:01.608Z,75.92
2022-10-29T05:41:01.651Z,75.81
2022-10-29T05:42:01.619Z,75.75
2022-10-29T05:43:01.850Z,75.71
2022-10-29T05:44:01.543Z,75.10
2022-10-29T05:45:01.546Z,75.04
2022-10-29T05:46:01.528Z,75.04
2022-10-29T05:47:01.523Z,75.34
2022-10-29T05:48:01.718Z,75.18
2022-10-29T05:49:01.498Z,75.68
2022-10-29T05:50:01.634Z,75.89
2022-10-29T05:51:01.546Z,76.29
2022-10-29T05:52:01.460Z,76.29
2022-10-29T05:53:01.459Z,76.29
2022-10-29T05:54:01.436Z,75.65
2022-10-29T05:55:01.472Z,75.75
2022-10-29T05:56:01.410Z,75.99
2022-10-29T05:57:01.455Z,75.79
2022-10-29T05:58:01.414Z,75.48
2022-10-29T05:59:01.385Z,76.09
2022-10-29T06:00:01.372Z,76.05
2022-10-29T06:01:01.393Z,76.09
2022-10-29T06:02:01.543Z,76.29
2022-10-29T06:03:01.768Z,76.46
2022-10-29T06:04:01.425Z,76.46
2022-10-29T06:05:01.317Z,76.35
2022-10-29T06:06:01.422Z,76.26
2022-10-29T06:07:01.313Z,76.15
2022-10-29T06:08:01.344Z,76.35
2022-10-29T06:09:01.271Z,76.46
2022-10-29T06:10:01.342Z,76.39
2022-10-29T06:11:01.253Z,76.15
2022-10-29T06:12:01.244Z,75.68
2022-10-29T06:13:01.301Z,76.05
2022-10-29T06:14:01.261Z,75.89
2022-10-29T06:15:01.210Z,75.45
2022-10-29T06:16:01.235Z,75.95
2022-10-29T06:17:01.185Z,76.05
2022-10-29T06:18:01.231Z,76.35
2022-10-29T06:19:01.178Z,75.85
2022-10-29T06:20:01.150Z,76.26
2022-10-29T06:21:01.195Z,76.26
2022-10-29T06:22:01.178Z,76.46
2022-10-29T06:23:01.121Z,75.85
2022-10-29T06:24:01.170Z,76.46
2022-10-29T06:25:01.132Z,76.35
2022-10-29T06:26:01.097Z,76.35
2022-10-29T06:27:01.078Z,76.66
2022-10-29T06:28:01.068Z,76.15
2022-10-29T06:29:01.123Z,76.12
2022-10-29T06:30:01.101Z,76.56
2022-10-29T06:31:01.038Z,76.46
2022-10-29T06:32:01.023Z,76.05
2022-10-29T06:33:01.026Z,76.56
2022-10-29T06:34:01.048Z,76.56
2022-10-29T06:35:00.996Z,76.46
2022-10-29T06:36:01.050Z,76.66
2022-10-29T06:37:01.015Z,76.26
2022-10-29T06:38:01.859Z,76.35
2022-10-29T06:39:00.963Z,76.26
2022-10-29T06:40:00.937Z,76.56
2022-10-29T06:41:00.978Z,76.46
2022-10-29T06:42:00.937Z,76.56
2022-10-29T06:43:00.909Z,76.26
2022-10-29T06:44:00.941Z,75.95
2022-10-29T06:45:00.886Z,76.26
2022-10-29T06:46:00.912Z,76.46
2022-10-29T06:47:00.870Z,76.39
2022-10-29T06:48:00.875Z,76.35
2022-10-29T06:49:00.835Z,76.46
2022-10-29T06:50:00.880Z,76.26
2022-10-29T06:51:00.884Z,76.56
2022-10-29T06:52:00.805Z,76.46
2022-10-29T06:53:00.810Z,76.32
2022-10-29T06:54:00.815Z,76.42
2022-10-29T06:55:00.777Z,76.42
2022-10-29T06:56:00.774Z,76.42
2022-10-29T06:57:00.785Z,76.32
2022-10-29T06:58:00.786Z,76.62
2022-10-29T06:59:00.780Z,76.39
2022-10-29T07:00:05.536Z,76.02
2022-10-29T07:01:00.731Z,75.92
2022-10-29T07:02:00.836Z,76.32
2022-10-29T07:03:00.916Z,76.28
2022-10-29T07:04:00.675Z,75.88
2022-10-29T07:05:00.703Z,75.68
2022-10-29T07:06:00.691Z,75.98
2022-10-29T07:07:00.651Z,76.39
2022-10-29T07:08:00.825Z,75.37
2022-10-29T07:09:00.619Z,76.08
2022-10-29T07:10:00.641Z,76.62
2022-10-29T07:11:00.609Z,76.12
2022-10-29T07:12:00.656Z,76.39
2022-10-29T07:13:00.584Z,76.08
2022-10-29T07:14:00.565Z,76.08
2022-10-29T07:15:00.556Z,76.28
2022-10-29T07:16:00.554Z,76.59
2022-10-29T07:17:00.570Z,76.08
2022-10-29T07:18:00.524Z,76.18
2022-10-29T07:19:00.508Z,76.48
2022-10-29T07:20:00.499Z,75.37
2022-10-29T07:21:00.538Z,76.28
2022-10-29T07:22:00.499Z,76.28
2022-10-29T07:23:00.474Z,76.39
2022-10-29T07:24:00.463Z,76.45
2022-10-29T07:25:01.383Z,76.08
2022-10-29T07:26:00.537Z,76.18
2022-10-29T07:27:00.428Z,76.25
2022-10-29T07:28:00.773Z,76.15
2022-10-29T07:29:00.424Z,76.15
2022-10-29T07:30:00.447Z,75.84
2022-10-29T07:31:00.428Z,75.84
2022-10-29T07:32:00.423Z,76.35
2022-10-29T07:33:00.360Z,76.25
2022-10-29T07:34:00.351Z,76.21
2022-10-29T07:35:00.340Z,76.31
2022-10-29T07:36:00.389Z,76.01
2022-10-29T07:37:00.312Z,76.11
2022-10-29T07:38:05.146Z,75.87
2022-10-29T07:39:00.317Z,75.81
2022-10-29T07:40:00.377Z,75.57
2022-10-29T07:41:00.273Z,75.57
2022-10-29T07:42:00.327Z,75.47
2022-10-29T07:43:00.252Z,75.57
2022-10-29T07:44:00.241Z,75.47
2022-10-29T07:45:00.346Z,75.77
2022-10-29T07:46:00.249Z,75.63
2022-10-29T07:47:00.249Z,75.23
2022-10-29T07:48:02.805Z,75.63
2022-10-29T07:49:00.246Z,75.54
2022-10-29T07:50:00.196Z,75.30
2022-10-29T07:51:00.177Z,75.10
2022-10-29T07:52:00.173Z,75.30
2022-10-29T07:53:00.146Z,74.90
2022-10-29T07:54:00.178Z,74.86
2022-10-29T07:55:00.182Z,74.86
2022-10-29T07:56:00.144Z,74.86
2022-10-29T07:57:00.104Z,74.86
2022-10-29T07:58:00.109Z,74.52
2022-10-29T07:59:00.123Z,74.32
2022-10-29T08:00:00.114Z,74.42
2022-10-29T08:01:00.184Z,74.12
2022-10-29T08:02:00.201Z,74.02
2022-10-29T08:03:00.085Z,74.18
2022-10-29T08:04:00.065Z,74.49
2022-10-29T08:05:00.012Z,73.58
2022-10-29T08:06:00.009Z,72.97
2022-10-29T08:06:59.994Z,73.28
2022-10-29T08:08:00.628Z,73.18
2022-10-29T08:09:00.001Z,72.74
2022-10-29T08:09:59.975Z,72.94
2022-10-29T08:10:59.953Z,72.64
2022-10-29T08:11:59.947Z,72.44
2022-10-29T08:13:00.700Z,72.54
2022-10-29T08:13:59.928Z,72.41
2022-10-29T08:14:59.921Z,72.10
2022-10-29T08:15:59.920Z,72.00
2022-10-29T08:16:59.875Z,72.00
2022-10-29T08:17:59.938Z,72.00
2022-10-29T08:18:59.878Z,70.89
2022-10-29T08:19:59.920Z,71.20
2022-10-29T08:20:59.844Z,71.56
2022-10-29T08:21:59.882Z,71.56
2022-10-29T08:23:00.436Z,71.80
2022-10-29T08:23:59.830Z,71.30
2022-10-29T08:24:59.789Z,70.96
2022-10-29T08:25:59.835Z,71.36
2022-10-29T08:26:59.788Z,70.66
2022-10-29T08:27:59.805Z,71.36
2022-10-29T08:28:59.749Z,70.76
2022-10-29T08:29:59.769Z,70.66
2022-10-29T08:30:59.736Z,70.56
2022-10-29T08:31:59.730Z,71.06
2022-10-29T08:33:00.297Z,70.86
2022-10-29T08:33:59.750Z,70.76
2022-10-29T08:34:59.681Z,70.63
2022-10-29T08:35:59.706Z,70.63
2022-10-29T08:36:59.703Z,70.93
2022-10-29T08:37:59.663Z,70.73
2022-10-29T08:38:59.669Z,70.83
2022-10-29T08:39:59.638Z,70.93
2022-10-29T08:40:59.618Z,70.53
2022-10-29T08:41:59.803Z,70.59
2022-10-29T08:42:59.597Z,71.03
2022-10-29T08:43:59.754Z,71.03
2022-10-29T08:44:59.575Z,71.03
2022-10-29T08:45:59.576Z,70.50
2022-10-29T08:47:02.431Z,70.29
2022-10-29T08:47:59.569Z,70.50
2022-10-29T08:48:59.573Z,69.89
2022-10-29T08:49:59.549Z,69.89
2022-10-29T08:50:59.541Z,69.59
2022-10-29T08:51:59.497Z,69.89
2022-10-29T08:53:23.728Z,69.89
2022-10-29T08:54:59.468Z,69.59
2022-10-29T08:55:59.533Z,69.46
2022-10-29T08:56:59.435Z,69.06
2022-10-29T08:57:59.701Z,69.15
2022-10-29T08:58:59.459Z,69.15
2022-10-29T08:59:59.467Z,69.26
2022-10-29T09:00:59.477Z,68.95
2022-10-29T09:01:59.581Z,68.92
2022-10-29T09:02:59.729Z,68.82
2022-10-29T09:03:59.434Z,68.42
2022-10-29T09:04:59.388Z,68.12
2022-10-29T09:05:59.339Z,68.32
2022-10-29T09:06:59.331Z,68.12
2022-10-29T09:08:02.158Z,68.12
2022-10-29T09:08:59.344Z,68.12
2022-10-29T09:09:59.327Z,68.12
2022-10-29T09:10:59.283Z,68.19
2022-10-29T09:11:59.311Z,68.22
2022-10-29T09:12:59.485Z,68.42
2022-10-29T09:13:59.248Z,68.22
2022-10-29T09:14:59.280Z,68.29
2022-10-29T09:15:59.240Z,68.29
2022-10-29T09:16:59.222Z,68.19
2022-10-29T09:17:59.594Z,68.08
2022-10-29T09:18:59.204Z,67.88
2022-10-29T09:19:59.238Z,67.58
2022-10-29T09:20:59.173Z,67.49
2022-10-29T09:21:59.181Z,67.69
2022-10-29T09:22:59.174Z,67.35
2022-10-29T09:23:59.201Z,67.65
2022-10-29T09:24:59.164Z,67.45
2022-10-29T09:25:59.126Z,67.55
2022-10-29T09:26:59.137Z,67.55
2022-10-29T09:27:59.511Z,67.45
2022-10-29T09:28:59.103Z,67.35
2022-10-29T09:29:59.198Z,67.35
2022-10-29T09:30:59.081Z,67.15
2022-10-29T09:31:59.057Z,67.25
2022-10-29T09:32:59.061Z,67.25
2022-10-29T09:34:01.673Z,67.25
2022-10-29T09:34:59.056Z,67.22
2022-10-29T09:35:59.015Z,67.35
2022-10-29T09:36:59.023Z,67.15
2022-10-29T09:37:59.701Z,67.25
2022-10-29T09:38:58.998Z,67.25
2022-10-29T09:39:59.012Z,67.35
2022-10-29T09:40:58.994Z,67.32
2022-10-29T09:41:58.947Z,67.42
2022-10-29T09:42:58.966Z,67.52
2022-10-29T09:43:59.000Z,67.82
2022-10-29T09:44:58.949Z,67.45
2022-10-29T09:45:58.908Z,67.35
2022-10-29T09:46:58.909Z,67.22
2022-10-29T09:47:59.209Z,67.02
2022-10-29T09:48:58.915Z,67.42
2022-10-29T09:50:03.584Z,67.22
2022-10-29T09:50:59.907Z,67.12
2022-10-29T09:51:58.882Z,66.92
2022-10-29T09:52:59.198Z,66.92
2022-10-29T09:53:58.807Z,66.92
2022-10-29T09:54:58.801Z,67.22
2022-10-29T09:55:58.787Z,67.22
2022-10-29T09:56:58.789Z,67.22
2022-10-29T09:57:58.802Z,67.22
2022-10-29T09:58:58.775Z,67.12
2022-10-29T09:59:58.743Z,67.09
2022-10-29T10:00:58.781Z,67.32
2022-10-29T10:01:58.789Z,67.29
2022-10-29T10:02:59.240Z,67.09
2022-10-29T10:03:58.832Z,67.09
2022-10-29T10:04:58.759Z,67.29
2022-10-29T10:05:58.745Z,67.09
2022-10-29T10:06:58.674Z,66.89
2022-10-29T10:07:58.912Z,66.66
2022-10-29T10:08:58.667Z,66.66
2022-10-29T10:09:58.636Z,66.96
2022-10-29T10:10:58.652Z,66.55
2022-10-29T10:11:58.610Z,66.96
2022-10-29T10:12:58.643Z,66.46
2022-10-29T10:13:58.601Z,67.05
2022-10-29T10:14:58.584Z,66.66
2022-10-29T10:15:58.579Z,66.75
2022-10-29T10:16:58.587Z,66.66
2022-10-29T10:17:59.020Z,66.13
2022-10-29T10:18:58.598Z,66.02
2022-10-29T10:19:58.534Z,66.25
2022-10-29T10:20:58.517Z,66.22
2022-10-29T10:21:58.535Z,65.62
2022-10-29T10:22:58.771Z,65.42
2022-10-29T10:23:58.490Z,66.22
2022-10-29T10:24:58.520Z,66.13
2022-10-29T10:26:02.107Z,66.22
2022-10-29T10:26:58.452Z,66.02
2022-10-29T10:27:58.887Z,66.22
2022-10-29T10:28:58.490Z,66.13
2022-10-29T10:29:58.467Z,66.02
2022-10-29T10:30:58.433Z,65.33
2022-10-29T10:31:58.462Z,66.09
2022-10-29T10:32:58.732Z,65.62
2022-10-29T10:33:59.207Z,65.69
2022-10-29T10:34:58.364Z,64.89
2022-10-29T10:35:58.361Z,65.39
2022-10-29T10:36:58.377Z,64.99
2022-10-29T10:37:58.972Z,65.09
2022-10-29T10:38:58.315Z,65.29
2022-10-29T10:39:58.349Z,65.33
2022-10-29T10:40:58.299Z,65.19
2022-10-29T10:41:58.330Z,65.49
2022-10-29T10:42:58.283Z,65.09
2022-10-29T10:43:58.276Z,64.99
2022-10-29T10:44:58.256Z,65.39
2022-10-29T10:45:58.254Z,65.49
2022-10-29T10:46:58.399Z,65.89
2022-10-29T10:47:58.842Z,65.59
2022-10-29T10:48:58.247Z,65.39
2022-10-29T10:49:58.238Z,66.29
2022-10-29T10:50:58.210Z,66.19
2022-10-29T10:51:58.248Z,66.19
2022-10-29T10:52:58.747Z,65.49
2022-10-29T10:53:58.209Z,65.59
2022-10-29T10:54:58.208Z,65.39
2022-10-29T10:55:58.173Z,65.59
2022-10-29T10:56:58.172Z,65.89
2022-10-29T10:57:58.139Z,65.29
2022-10-29T10:58:58.143Z,64.69
2022-10-29T10:59:58.134Z,65.09
2022-10-29T11:00:58.179Z,64.89
2022-10-29T11:01:58.222Z,64.89
2022-10-29T11:02:58.663Z,65.16
2022-10-29T11:03:58.044Z,64.89
2022-10-29T11:04:59.080Z,64.69
2022-10-29T11:05:58.150Z,64.69
2022-10-29T11:06:58.055Z,64.99
2022-10-29T11:07:58.393Z,64.76
2022-10-29T11:08:58.009Z,63.96
2022-10-29T11:09:57.993Z,64.46
2022-10-29T11:10:57.970Z,64.56
2022-10-29T11:11:59.338Z,64.86
2022-10-29T11:12:58.004Z,63.76
2022-10-29T11:13:57.936Z,63.86
2022-10-29T11:14:57.972Z,63.93
2022-10-29T11:15:57.911Z,64.13
2022-10-29T11:16:57.906Z,63.63
2022-10-29T11:17:58.500Z,64.03
2022-10-29T11:18:57.994Z,64.23
2022-10-29T11:19:57.881Z,63.93
2022-10-29T11:20:57.873Z,64.03
2022-10-29T11:21:57.852Z,63.63
2022-10-29T11:22:58.304Z,63.53
2022-10-29T11:23:57.825Z,63.63
2022-10-29T11:24:57.834Z,63.23
2022-10-29T11:25:57.866Z,63.53
2022-10-29T11:26:57.831Z,63.90
2022-10-29T11:27:57.785Z,64.13
2022-10-29T11:28:57.824Z,63.80
2022-10-29T11:29:57.762Z,63.80
2022-10-29T11:30:57.756Z,63.90
2022-10-29T11:31:57.752Z,64.50
2022-10-29T11:32:58.204Z,64.70
2022-10-29T11:33:57.756Z,64.07
2022-10-29T11:34:57.772Z,64.77
2022-10-29T11:36:01.452Z,64.20
2022-10-29T11:36:57.682Z,64.07
2022-10-29T11:37:58.224Z,64.30
2022-10-29T11:38:57.676Z,64.87
2022-10-29T11:39:57.687Z,64.17
2022-10-29T11:40:57.682Z,64.97
2022-10-29T11:41:57.653Z,64.70
2022-10-29T11:42:57.681Z,64.77
2022-10-29T11:43:57.627Z,64.97
2022-10-29T11:44:57.623Z,65.07
2022-10-29T11:45:57.637Z,64.97
2022-10-29T11:46:57.574Z,64.87
2022-10-29T11:47:57.967Z,64.67
2022-10-29T11:48:57.562Z,64.67
2022-10-29T11:49:57.562Z,64.77
2022-10-29T11:50:57.576Z,64.57
2022-10-29T11:51:57.573Z,65.56
2022-10-29T11:52:58.022Z,64.77
2022-10-29T11:53:57.500Z,64.87
2022-10-29T11:54:57.490Z,64.97
2022-10-29T11:55:57.488Z,65.00
2022-10-29T11:56:57.471Z,64.97
2022-10-29T11:57:57.509Z,64.90
2022-10-29T11:58:57.452Z,65.17
2022-10-29T11:59:57.431Z,65.10
2022-10-29T12:00:57.432Z,65.00
2022-10-29T12:01:57.543Z,65.20
2022-10-29T12:02:57.803Z,65.00
2022-10-29T12:03:57.443Z,65.50
2022-10-29T12:04:57.393Z,64.70
2022-10-29T12:05:57.378Z,65.20
2022-10-29T12:06:57.369Z,65.30
2022-10-29T12:07:57.809Z,65.60
2022-10-29T12:08:57.331Z,65.80
2022-10-29T12:09:57.322Z,65.60
2022-10-29T12:10:57.326Z,65.26
2022-10-29T12:11:57.304Z,65.56
2022-10-29T12:12:57.333Z,65.47
2022-10-29T12:13:57.329Z,65.26
2022-10-29T12:14:57.274Z,65.56
2022-10-29T12:15:57.257Z,65.37
2022-10-29T12:16:57.267Z,65.26
2022-10-29T12:17:57.462Z,64.97
2022-10-29T12:18:57.233Z,64.87
2022-10-29T12:19:57.336Z,64.87
2022-10-29T12:20:57.208Z,64.57
2022-10-29T12:21:57.190Z,64.87
2022-10-29T12:23:02.513Z,64.84
2022-10-29T12:23:57.225Z,64.64
2022-10-29T12:24:57.181Z,64.44
2022-10-29T12:25:57.186Z,64.44
2022-10-29T12:26:57.132Z,64.01
2022-10-29T12:27:57.196Z,64.24
2022-10-29T12:28:57.125Z,64.01
2022-10-29T12:29:57.137Z,63.71
2022-10-29T12:30:57.122Z,63.81
2022-10-29T12:31:57.079Z,63.71
2022-10-29T12:32:57.417Z,64.11
2022-10-29T12:33:57.237Z,63.91
2022-10-29T12:34:57.056Z,64.21
2022-10-29T12:35:57.121Z,63.81
2022-10-29T12:36:57.856Z,63.84
2022-10-29T12:37:57.487Z,63.44
2022-10-29T12:38:57.004Z,63.54
2022-10-29T12:39:57.027Z,63.84
2022-10-29T12:40:56.983Z,63.24
2022-10-29T12:41:57.016Z,63.44
2022-10-29T12:42:56.987Z,63.14
2022-10-29T12:43:56.971Z,63.14
2022-10-29T12:44:56.976Z,63.24
2022-10-29T12:46:19.101Z,63.24
2022-10-29T12:46:57.932Z,63.34
2022-10-29T12:47:57.315Z,63.34
2022-10-29T12:48:56.896Z,63.37
2022-10-29T12:49:56.893Z,63.34
2022-10-29T12:50:56.913Z,63.17
2022-10-29T12:52:57.212Z,63.87
2022-10-29T12:53:56.868Z,64.07
2022-10-29T12:54:56.864Z,64.07
2022-10-29T12:55:56.822Z,64.04
2022-10-29T12:56:56.816Z,63.67
2022-10-29T12:57:56.834Z,63.67
2022-10-29T12:58:56.798Z,64.07
2022-10-29T12:59:56.795Z,63.97
2022-10-29T13:00:56.802Z,64.27
2022-10-29T13:02:10.965Z,64.17